Time;durP1;ratioP1;P1;durP2;ratioP2;P2;SDS_P1;SDS_P2;PMS_P1;PMS_P2;Temp;Humidity;BMP_temperature;BMP_pressure;BME280_temperature;BME280_humidity;BME280_pressure;Samples;Min_cycle;Max_cycle;Signal;HPM_P1;HPM_P2
2021/09/11 00:00:44;;;;;;;6.30;5.70;;;21.20;99.90;;;;;;5076487;28;20448;-70
2021/09/11 00:03:12;;;;;;;6.33;5.73;;;21.20;99.90;;;;;;5076655;28;20875;-70
2021/09/11 00:05:39;;;;;;;6.23;5.47;;;21.10;99.90;;;;;;5076406;28;20468;-70
2021/09/11 00:08:06;;;;;;;8.07;6.27;;;21.10;99.90;;;;;;5076714;28;20444;-70
2021/09/11 00:10:34;;;;;;;6.63;5.80;;;21.10;99.90;;;;;;5076609;28;20448;-70
2021/09/11 00:13:01;;;;;;;7.53;5.90;;;21.10;99.90;;;;;;5076424;28;20532;-71
2021/09/11 00:15:32;;;;;;;6.87;6.03;;;21.10;99.90;;;;;;5076062;28;20551;-70
2021/09/11 00:17:59;;;;;;;8.10;6.17;;;21.10;99.90;;;;;;5076550;28;20455;-70
2021/09/11 00:20:28;;;;;;;6.57;5.90;;;21.00;99.90;;;;;;5076490;28;20445;-70
2021/09/11 00:22:55;;;;;;;6.53;5.93;;;21.00;99.90;;;;;;5076187;28;20990;-70
2021/09/11 00:25:22;;;;;;;7.03;6.33;;;21.00;99.90;;;;;;5076042;28;20885;-70
2021/09/11 00:27:49;;;;;;;7.73;6.93;;;21.00;99.90;;;;;;5076327;28;20534;-70
2021/09/11 00:30:16;;;;;;;7.93;6.80;;;21.00;99.90;;;;;;5076021;28;20535;-70
2021/09/11 00:32:43;;;;;;;7.93;6.30;;;21.00;99.90;;;;;;5076197;28;20449;-70
2021/09/11 00:35:12;;;;;;;8.30;6.87;;;21.00;99.90;;;;;;5075971;28;20554;-70
2021/09/11 00:37:40;;;;;;;6.40;5.80;;;21.00;99.90;;;;;;5076194;28;20469;-70
2021/09/11 00:40:09;;;;;;;6.80;6.10;;;21.00;99.90;;;;;;5076001;28;20444;-70
2021/09/11 00:42:35;;;;;;;6.40;5.80;;;20.90;99.90;;;;;;5075969;28;20535;-70
2021/09/11 00:45:03;;;;;;;7.70;6.77;;;20.90;99.90;;;;;;5075270;28;20460;-70
2021/09/11 00:47:29;;;;;;;6.40;5.80;;;21.00;99.90;;;;;;5074969;28;20483;-70
2021/09/11 00:49:56;;;;;;;8.63;7.00;;;20.90;99.90;;;;;;5075905;28;20527;-70
2021/09/11 00:52:23;;;;;;;6.20;5.60;;;20.90;99.90;;;;;;5075854;28;20432;-70
2021/09/11 00:54:52;;;;;;;7.07;6.37;;;20.90;99.90;;;;;;5075318;28;20435;-71
2021/09/11 00:57:20;;;;;;;6.50;5.90;;;20.90;99.90;;;;;;5075837;28;20447;-70
2021/09/11 00:59:47;;;;;;;7.23;6.53;;;20.90;99.90;;;;;;5076012;28;20438;-70
2021/09/11 01:02:14;;;;;;;6.77;6.07;;;20.90;99.90;;;;;;5075647;28;20462;-70
2021/09/11 01:04:41;;;;;;;7.27;6.60;;;20.90;99.90;;;;;;5075551;28;20477;-70
2021/09/11 01:07:08;;;;;;;6.40;5.80;;;20.90;99.90;;;;;;5075313;28;20985;-70
2021/09/11 01:09:35;;;;;;;6.83;6.20;;;20.90;99.90;;;;;;5075516;28;20443;-70
2021/09/11 01:12:04;;;;;;;7.70;6.37;;;21.00;99.90;;;;;;5075320;28;20445;-70
2021/09/11 01:14:31;;;;;;;6.80;5.90;;;20.90;99.90;;;;;;5075280;28;20441;-70
2021/09/11 01:16:58;;;;;;;6.50;5.80;;;20.90;99.90;;;;;;5075246;28;20465;-70
2021/09/11 01:19:25;;;;;;;7.07;6.20;;;20.90;99.90;;;;;;5075372;28;20531;-70
2021/09/11 01:21:52;;;;;;;6.23;5.63;;;20.90;99.90;;;;;;5075215;28;20461;-70
2021/09/11 01:24:20;;;;;;;7.00;6.07;;;20.90;99.90;;;;;;5075147;28;20567;-70
2021/09/11 01:26:50;;;;;;;6.87;6.13;;;20.80;99.90;;;;;;5074719;28;20471;-70
2021/09/11 01:29:17;;;;;;;7.43;5.67;;;20.80;99.90;;;;;;5075164;28;20807;-70
2021/09/11 01:31:44;;;;;;;6.80;5.90;;;20.80;99.90;;;;;;5075097;28;20450;-70
2021/09/11 01:34:11;;;;;;;6.70;5.60;;;20.80;99.90;;;;;;5074973;28;20531;-70
2021/09/11 01:36:38;;;;;;;6.53;5.80;;;20.70;99.90;;;;;;5074801;28;20468;-70
2021/09/11 01:39:04;;;;;;;7.43;6.17;;;20.70;99.90;;;;;;5074933;28;20539;-70
2021/09/11 01:41:33;;;;;;;8.17;6.20;;;20.70;99.90;;;;;;5074884;28;20530;-70
2021/09/11 01:43:59;;;;;;;6.67;5.97;;;20.60;99.90;;;;;;5074532;28;20517;-70
2021/09/11 01:46:26;;;;;;;7.03;5.70;;;20.50;99.90;;;;;;5074356;28;20558;-70
2021/09/11 01:48:53;;;;;;;7.70;6.20;;;20.50;99.90;;;;;;5074678;28;20458;-70
2021/09/11 01:51:20;;;;;;;6.50;5.90;;;20.50;99.90;;;;;;5074713;28;20993;-70
2021/09/11 01:53:47;;;;;;;6.10;5.50;;;20.60;99.90;;;;;;5074621;28;20443;-70
2021/09/11 01:56:13;;;;;;;6.60;5.90;;;20.60;99.90;;;;;;5074432;28;20585;-70
2021/09/11 01:58:42;;;;;;;6.90;5.70;;;20.50;99.90;;;;;;5074408;28;20542;-70
2021/09/11 02:01:08;;;;;;;6.70;5.70;;;20.50;99.90;;;;;;5074508;28;20482;-70
2021/09/11 02:03:35;;;;;;;6.70;5.90;;;20.40;99.90;;;;;;5074304;28;21036;-70
2021/09/11 02:06:02;;;;;;;6.53;5.33;;;20.50;99.90;;;;;;5074206;28;20478;-70
2021/09/11 02:08:29;;;;;;;6.33;5.73;;;20.40;99.90;;;;;;5074401;28;20443;-70
2021/09/11 02:10:56;;;;;;;6.13;5.53;;;20.40;99.90;;;;;;5074291;28;20452;-70
2021/09/11 02:13:23;;;;;;;5.90;5.40;;;20.50;99.90;;;;;;5074260;28;20461;-70
2021/09/11 02:15:51;;;;;;;6.97;6.10;;;20.40;99.90;;;;;;5073875;28;20473;-70
2021/09/11 02:18:18;;;;;;;6.63;5.90;;;20.40;99.90;;;;;;5073924;28;20449;-70
2021/09/11 02:20:45;;;;;;;6.70;6.10;;;20.40;99.90;;;;;;5074148;28;20814;-70
2021/09/11 02:23:12;;;;;;;5.30;4.80;;;20.40;99.90;;;;;;5073998;28;20480;-70
2021/09/11 02:25:38;;;;;;;6.90;5.80;;;20.40;99.90;;;;;;5073765;28;20478;-70
2021/09/11 02:28:06;;;;;;;6.17;5.47;;;20.40;99.90;;;;;;5073769;28;20538;-70
2021/09/11 02:30:32;;;;;;;6.10;5.47;;;20.40;99.90;;;;;;5073962;28;20447;-70
2021/09/11 02:33:01;;;;;;;6.03;5.43;;;20.40;99.90;;;;;;5073744;28;20448;-70
2021/09/11 02:35:28;;;;;;;5.93;5.33;;;20.40;99.90;;;;;;5073605;28;20555;-70
2021/09/11 02:37:54;;;;;;;5.73;5.07;;;20.40;99.90;;;;;;5073946;28;20444;-70
2021/09/11 02:40:21;;;;;;;6.23;5.40;;;20.40;99.90;;;;;;5073576;28;20443;-70
2021/09/11 02:42:48;;;;;;;6.33;5.70;;;20.40;99.90;;;;;;5073644;28;20445;-70
2021/09/11 02:45:15;;;;;;;6.37;5.70;;;20.40;99.90;;;;;;5073471;28;20492;-70
2021/09/11 02:47:42;;;;;;;6.53;5.40;;;20.40;99.90;;;;;;5073778;28;20444;-70
2021/09/11 02:50:11;;;;;;;8.07;5.40;;;20.40;99.90;;;;;;5073743;28;20518;-70
2021/09/11 02:52:37;;;;;;;5.80;5.23;;;20.40;99.90;;;;;;5073705;28;20466;-70
2021/09/11 02:55:05;;;;;;;5.97;5.37;;;20.40;99.90;;;;;;5073386;28;20813;-70
2021/09/11 02:57:32;;;;;;;5.53;5.03;;;20.40;99.90;;;;;;5073624;28;20462;-70
2021/09/11 02:59:59;;;;;;;5.57;5.03;;;20.40;99.90;;;;;;5073545;28;21008;-70
2021/09/11 03:02:26;;;;;;;6.37;5.67;;;20.40;99.90;;;;;;5073425;28;20444;-70
2021/09/11 03:04:53;;;;;;;5.10;4.60;;;20.40;99.90;;;;;;5073457;28;20514;-70
2021/09/11 03:07:21;;;;;;;5.60;4.90;;;20.40;99.90;;;;;;5073648;28;20526;-70
2021/09/11 03:09:47;;;;;;;6.17;5.60;;;20.40;99.90;;;;;;5073248;28;20448;-70
2021/09/11 03:12:14;;;;;;;6.90;6.00;;;20.40;99.90;;;;;;5073420;28;20516;-70
2021/09/11 03:14:41;;;;;;;6.00;4.93;;;20.30;99.90;;;;;;5073388;28;20930;-70
2021/09/11 03:17:08;;;;;;;5.50;5.00;;;20.40;99.90;;;;;;5073494;28;20506;-70
2021/09/11 03:19:35;;;;;;;6.53;5.60;;;20.30;99.90;;;;;;5073509;28;20957;-70
2021/09/11 03:22:01;;;;;;;5.47;4.93;;;20.40;99.90;;;;;;5073450;28;20521;-70
2021/09/11 03:24:30;;;;;;;5.40;4.90;;;20.40;99.90;;;;;;5073297;28;21059;-70
2021/09/11 03:26:57;;;;;;;5.67;5.17;;;20.40;99.90;;;;;;5072884;28;20463;-70
2021/09/11 03:29:23;;;;;;;5.93;5.33;;;20.40;99.90;;;;;;5073132;28;20947;-70
2021/09/11 03:31:50;;;;;;;6.20;5.60;;;20.40;99.90;;;;;;5073233;28;20538;-70
2021/09/11 03:34:17;;;;;;;5.90;5.30;;;20.40;99.90;;;;;;5073166;28;20921;-70
2021/09/11 03:36:44;;;;;;;5.67;5.07;;;20.40;99.90;;;;;;5073093;28;20467;-70
2021/09/11 03:39:11;;;;;;;6.60;5.70;;;20.40;99.90;;;;;;5073136;28;20451;-71
2021/09/11 03:41:39;;;;;;;5.73;5.13;;;20.40;99.90;;;;;;5073250;28;20440;-70
2021/09/11 03:44:06;;;;;;;6.77;5.10;;;20.40;99.90;;;;;;5073050;28;20491;-70
2021/09/11 03:46:33;;;;;;;8.17;6.40;;;20.40;99.90;;;;;;5073026;28;20830;-70
2021/09/11 03:49:00;;;;;;;6.37;5.77;;;20.40;99.90;;;;;;5073392;28;20539;-70
2021/09/11 03:51:28;;;;;;;5.73;5.23;;;20.40;99.90;;;;;;5073136;28;20535;-70
2021/09/11 03:53:55;;;;;;;6.00;5.33;;;20.50;99.90;;;;;;5073005;28;20860;-70
2021/09/11 03:56:22;;;;;;;6.83;5.50;;;20.50;99.90;;;;;;5072880;28;20471;-70
2021/09/11 03:58:50;;;;;;;5.97;5.30;;;20.50;99.90;;;;;;5073067;28;20439;-70
2021/09/11 04:01:17;;;;;;;7.10;5.57;;;20.50;99.90;;;;;;5073002;28;20539;-70
2021/09/11 04:03:44;;;;;;;5.27;4.77;;;20.50;99.90;;;;;;5072906;28;20487;-70
2021/09/11 04:06:11;;;;;;;5.63;5.00;;;20.50;99.90;;;;;;5072612;28;20506;-70
2021/09/11 04:08:38;;;;;;;6.47;5.73;;;20.50;99.90;;;;;;5072677;28;20942;-70
2021/09/11 04:11:05;;;;;;;5.90;5.10;;;20.50;99.90;;;;;;5072684;28;20444;-70
2021/09/11 04:13:33;;;;;;;5.17;4.47;;;20.40;99.90;;;;;;5072975;28;20448;-70
2021/09/11 04:16:01;;;;;;;5.70;5.20;;;20.50;99.90;;;;;;5072508;28;20556;-70
2021/09/11 04:18:28;;;;;;;5.13;4.63;;;20.40;99.90;;;;;;5072910;28;20447;-70
2021/09/11 04:20:55;;;;;;;5.83;5.23;;;20.50;99.90;;;;;;5073268;28;20874;-70
2021/09/11 04:23:22;;;;;;;5.50;4.50;;;20.40;99.90;;;;;;5076405;28;20474;-70
2021/09/11 04:25:49;;;;;;;6.50;4.87;;;20.40;99.90;;;;;;5075774;28;20566;-70
2021/09/11 04:28:15;;;;;;;5.37;4.87;;;20.50;99.90;;;;;;5076346;28;20479;-70
2021/09/11 04:30:42;;;;;;;5.07;4.60;;;20.40;99.90;;;;;;5076266;28;20535;-70
2021/09/11 04:33:10;;;;;;;5.73;4.60;;;20.40;99.90;;;;;;5076214;28;20475;-70
2021/09/11 04:35:37;;;;;;;5.00;4.50;;;20.40;99.90;;;;;;5075841;28;20464;-70
2021/09/11 04:38:04;;;;;;;5.30;4.80;;;20.50;99.90;;;;;;5075921;28;20451;-70
2021/09/11 04:40:31;;;;;;;6.13;5.47;;;20.50;99.90;;;;;;5075914;28;20806;-70
2021/09/11 04:42:58;;;;;;;4.93;4.50;;;20.50;99.90;;;;;;5075928;28;20465;-71
2021/09/11 04:45:25;;;;;;;5.30;4.73;;;20.50;99.90;;;;;;5075546;28;21084;-70
2021/09/11 04:47:52;;;;;;;5.27;4.77;;;20.50;99.90;;;;;;5075705;28;20994;-70
2021/09/11 04:50:20;;;;;;;5.00;4.60;;;20.50;99.90;;;;;;5075605;28;20818;-70
2021/09/11 04:52:47;;;;;;;4.67;4.27;;;20.50;99.90;;;;;;5075866;28;20475;-70
2021/09/11 04:55:14;;;;;;;5.13;4.63;;;20.50;99.90;;;;;;5075779;28;20474;-70
2021/09/11 04:57:41;;;;;;;5.07;4.53;;;20.50;99.90;;;;;;5075872;28;20499;-70
2021/09/11 05:00:09;;;;;;;7.53;5.50;;;20.50;99.90;;;;;;5075772;28;20526;-70
2021/09/11 05:02:35;;;;;;;6.40;4.77;;;20.50;99.90;;;;;;5075714;28;20440;-70
2021/09/11 05:05:03;;;;;;;4.40;4.00;;;20.40;99.90;;;;;;5075300;28;20491;-71
2021/09/11 05:07:31;;;;;;;4.57;4.03;;;20.40;99.90;;;;;;5075635;28;20456;-70
2021/09/11 05:09:57;;;;;;;6.87;4.73;;;20.40;99.90;;;;;;5075543;28;20531;-70
2021/09/11 05:12:24;;;;;;;4.03;3.63;;;20.30;99.90;;;;;;5075424;28;20443;-70
2021/09/11 05:14:51;;;;;;;4.00;3.60;;;20.30;99.90;;;;;;5075182;28;20440;-70
2021/09/11 05:17:18;;;;;;;4.73;4.27;;;20.20;99.90;;;;;;5075624;28;20537;-70
2021/09/11 05:19:45;;;;;;;4.83;3.83;;;20.20;99.90;;;;;;5075366;28;20480;-70
2021/09/11 05:22:12;;;;;;;4.97;4.30;;;20.20;99.90;;;;;;5075319;28;20860;-70
2021/09/11 05:24:41;;;;;;;4.67;4.27;;;20.20;99.90;;;;;;5075099;28;20566;-70
2021/09/11 05:27:08;;;;;;;4.40;4.00;;;20.20;99.90;;;;;;5074769;28;20814;-70
2021/09/11 05:29:35;;;;;;;4.50;4.00;;;20.20;99.90;;;;;;5075142;28;20535;-70
2021/09/11 05:32:02;;;;;;;5.43;4.67;;;20.20;99.90;;;;;;5074621;28;20484;-70
2021/09/11 05:34:29;;;;;;;4.03;3.70;;;20.10;99.90;;;;;;5075054;28;20522;-70
2021/09/11 05:36:56;;;;;;;4.13;3.73;;;20.10;99.90;;;;;;5074515;28;20477;-70
2021/09/11 05:39:22;;;;;;;4.30;3.90;;;20.10;99.90;;;;;;5074988;28;20546;-70
2021/09/11 05:41:50;;;;;;;4.67;3.83;;;20.00;99.90;;;;;;5074913;28;20437;-70
2021/09/11 05:44:17;;;;;;;4.50;3.70;;;19.90;99.90;;;;;;5074411;28;20466;-70
2021/09/11 05:46:44;;;;;;;4.93;4.30;;;19.80;99.90;;;;;;5074318;28;20472;-70
2021/09/11 05:49:11;;;;;;;4.50;4.10;;;19.70;99.90;;;;;;5074767;28;20538;-70
2021/09/11 05:51:38;;;;;;;4.97;4.00;;;19.50;99.90;;;;;;5074413;28;20953;-70
2021/09/11 05:54:04;;;;;;;5.50;4.33;;;19.40;99.90;;;;;;5074650;28;20543;-70
2021/09/11 05:56:31;;;;;;;5.00;4.37;;;19.40;99.90;;;;;;5074092;28;20467;-70
2021/09/11 05:58:59;;;;;;;4.17;3.80;;;19.20;99.90;;;;;;5074239;28;21001;-71
2021/09/11 06:01:26;;;;;;;6.93;4.70;;;19.30;99.90;;;;;;5074489;28;20533;-70
2021/09/11 06:03:53;;;;;;;4.47;4.03;;;19.20;99.90;;;;;;5074461;28;20528;-70
2021/09/11 06:06:20;;;;;;;6.60;4.30;;;19.30;99.90;;;;;;5074188;28;20481;-70
2021/09/11 06:08:47;;;;;;;4.77;4.23;;;19.30;99.90;;;;;;5074354;28;20804;-70
2021/09/11 06:11:13;;;;;;;4.40;4.00;;;19.40;99.90;;;;;;5074297;28;20540;-71
2021/09/11 06:13:40;;;;;;;4.30;3.70;;;19.50;99.90;;;;;;5074020;28;20529;-70
2021/09/11 06:16:09;;;;;;;4.23;3.50;;;19.50;99.90;;;;;;5074071;28;20473;-70
2021/09/11 06:18:36;;;;;;;4.67;4.17;;;19.50;99.90;;;;;;5074019;28;20453;-70
2021/09/11 06:21:03;;;;;;;4.93;3.80;;;19.50;99.90;;;;;;5074157;28;20541;-70
2021/09/11 06:23:30;;;;;;;5.03;3.97;;;19.60;99.90;;;;;;5074013;28;20996;-70
2021/09/11 06:25:57;;;;;;;3.83;3.43;;;19.60;99.90;;;;;;5073678;28;20921;-70
2021/09/11 06:28:25;;;;;;;3.80;3.50;;;19.70;99.90;;;;;;5073799;28;20932;-70
2021/09/11 06:30:52;;;;;;;3.60;3.30;;;19.80;99.90;;;;;;5074035;28;20894;-70
2021/09/11 06:33:21;;;;;;;4.10;3.70;;;19.80;99.90;;;;;;5073934;28;20442;-70
2021/09/11 06:35:47;;;;;;;4.10;3.60;;;19.90;99.90;;;;;;5073543;28;20509;-70
2021/09/11 06:38:14;;;;;;;5.60;5.03;;;19.90;99.90;;;;;;5073625;28;20451;-71
2021/09/11 06:40:41;;;;;;;5.30;4.40;;;20.00;99.90;;;;;;5073590;28;20451;-70
2021/09/11 06:43:08;;;;;;;3.90;3.47;;;20.00;99.90;;;;;;5073409;28;20461;-71
2021/09/11 06:45:35;;;;;;;4.13;3.73;;;20.10;99.90;;;;;;5073380;28;20487;-70
2021/09/11 06:48:02;;;;;;;4.40;3.77;;;20.10;99.90;;;;;;5073856;28;20453;-70
2021/09/11 06:50:30;;;;;;;5.53;4.03;;;20.10;99.90;;;;;;5073686;28;20480;-70
2021/09/11 06:52:57;;;;;;;4.00;3.60;;;20.20;99.90;;;;;;5073661;28;20443;-70
2021/09/11 06:55:23;;;;;;;4.03;3.60;;;20.20;99.90;;;;;;5073225;28;20470;-70
2021/09/11 06:57:51;;;;;;;3.70;3.40;;;20.10;99.90;;;;;;5073683;28;20519;-70
2021/09/11 07:00:18;;;;;;;4.07;3.60;;;20.20;99.90;;;;;;5073447;28;20979;-70
2021/09/11 07:02:45;;;;;;;3.33;3.03;;;20.20;99.90;;;;;;5073493;28;20446;-70
2021/09/11 07:05:12;;;;;;;4.10;3.10;;;20.30;99.90;;;;;;5073239;28;20847;-70
2021/09/11 07:07:40;;;;;;;3.80;3.40;;;20.40;99.90;;;;;;5073266;28;20539;-70
2021/09/11 07:10:08;;;;;;;3.83;3.50;;;20.40;99.90;;;;;;5073552;28;20950;-71
2021/09/11 07:12:35;;;;;;;3.77;3.40;;;20.40;99.90;;;;;;5073309;28;20475;-70
2021/09/11 07:15:02;;;;;;;3.60;3.30;;;20.50;99.90;;;;;;5073249;28;20444;-70
2021/09/11 07:17:29;;;;;;;4.77;4.27;;;20.50;99.90;;;;;;5073785;28;20443;-70
2021/09/11 07:19:56;;;;;;;2.90;2.60;;;20.50;99.90;;;;;;5073380;28;20965;-70
2021/09/11 07:22:23;;;;;;;4.37;3.93;;;20.50;99.90;;;;;;5073376;28;20484;-70
2021/09/11 07:24:51;;;;;;;4.30;3.90;;;20.60;99.90;;;;;;5073156;28;20521;-70
2021/09/11 07:27:18;;;;;;;4.73;4.23;;;20.70;99.90;;;;;;5073448;28;20458;-70
2021/09/11 07:29:45;;;;;;;4.80;3.60;;;20.80;99.90;;;;;;5073238;28;20771;-70
2021/09/11 07:32:12;;;;;;;3.50;3.20;;;20.80;99.90;;;;;;5073273;28;21032;-70
2021/09/11 07:34:38;;;;;;;4.57;3.60;;;20.80;99.90;;;;;;5073209;28;20472;-70
2021/09/11 07:37:05;;;;;;;3.60;3.30;;;20.80;99.90;;;;;;5072965;28;21041;-70
2021/09/11 07:39:32;;;;;;;3.63;3.27;;;20.80;99.90;;;;;;5073291;28;20806;-70
2021/09/11 07:42:00;;;;;;;2.77;2.53;;;20.90;99.90;;;;;;5073087;28;20480;-70
2021/09/11 07:44:27;;;;;;;3.70;3.40;;;21.00;99.90;;;;;;5073151;28;20455;-70
2021/09/11 07:46:54;;;;;;;4.83;4.30;;;21.00;99.90;;;;;;5072949;28;20574;-70
2021/09/11 07:49:21;;;;;;;3.17;2.87;;;21.10;99.90;;;;;;5073375;28;20931;-70
2021/09/11 07:51:48;;;;;;;2.87;2.47;;;21.20;99.90;;;;;;5072832;28;20532;-70
2021/09/11 07:54:14;;;;;;;4.03;3.27;;;21.30;99.90;;;;;;5073155;28;20535;-70
2021/09/11 07:56:41;;;;;;;3.50;3.20;;;21.30;99.90;;;;;;5076136;28;21037;-70
2021/09/11 07:59:09;;;;;;;3.00;2.73;;;21.40;99.90;;;;;;5076875;28;20445;-70
2021/09/11 08:01:36;;;;;;;3.30;3.00;;;21.50;99.90;;;;;;5076986;28;20953;-70
2021/09/11 08:04:03;;;;;;;3.07;2.87;;;21.60;99.90;;;;;;5076790;28;20576;-70
2021/09/11 08:06:30;;;;;;;3.80;3.03;;;21.70;99.90;;;;;;5076472;28;20492;-70
2021/09/11 08:08:57;;;;;;;3.50;3.20;;;21.80;99.90;;;;;;5076811;28;21018;-70
2021/09/11 08:11:24;;;;;;;3.30;3.00;;;21.90;99.90;;;;;;5076658;28;20539;-70
2021/09/11 08:13:52;;;;;;;2.87;2.63;;;21.90;99.90;;;;;;5076417;28;20525;-70
2021/09/11 08:16:21;;;;;;;3.13;2.83;;;21.90;99.90;;;;;;5076129;28;20511;-70
2021/09/11 08:18:48;;;;;;;3.50;3.17;;;21.80;99.90;;;;;;5076674;28;20524;-70
2021/09/11 08:21:15;;;;;;;2.90;2.63;;;21.80;99.90;;;;;;5076259;28;20449;-70
2021/09/11 08:23:43;;;;;;;3.87;3.17;;;21.60;99.90;;;;;;5076429;28;20441;-70
2021/09/11 08:26:10;;;;;;;2.53;2.33;;;21.70;99.90;;;;;;5075913;28;20577;-70
2021/09/11 08:28:37;;;;;;;3.47;2.90;;;21.60;99.90;;;;;;5076389;28;20471;-70
2021/09/11 08:31:03;;;;;;;3.43;2.90;;;21.70;99.90;;;;;;5076265;28;20454;-70
2021/09/11 08:33:32;;;;;;;2.90;2.70;;;21.70;99.90;;;;;;5076240;28;20491;-70
2021/09/11 08:35:58;;;;;;;2.70;2.50;;;21.90;99.90;;;;;;5076024;28;20556;-70
2021/09/11 08:38:25;;;;;;;3.40;2.70;;;22.00;99.90;;;;;;5076236;28;20865;-70
2021/09/11 08:40:52;;;;;;;2.73;2.53;;;21.90;99.90;;;;;;5076139;28;20865;-70
2021/09/11 08:43:19;;;;;;;2.90;2.60;;;22.00;99.90;;;;;;5075977;28;20867;-71
2021/09/11 08:45:47;;;;;;;2.37;2.20;;;22.10;99.90;;;;;;5075475;28;20481;-71
2021/09/11 08:48:13;;;;;;;2.30;2.07;;;22.20;99.90;;;;;;5076025;28;20441;-70
2021/09/11 08:50:42;;;;;;;2.60;2.40;;;22.30;99.90;;;;;;5075829;28;20540;-70
2021/09/11 08:53:11;;;;;;;2.70;2.50;;;22.40;99.90;;;;;;5075587;28;20488;-70
2021/09/11 08:55:38;;;;;;;5.10;4.50;;;22.50;99.90;;;;;;5075547;28;20536;-70
2021/09/11 08:58:06;;;;;;;6.60;3.70;;;22.50;99.90;;;;;;5075813;28;20449;-70
2021/09/11 09:00:41;;;;;;;2.70;2.50;;;22.50;99.90;;;;;;5075811;28;20539;-70
2021/09/11 09:03:29;;;;;;;2.80;2.43;;;22.50;99.90;;;;;;5075654;28;20443;-70
2021/09/11 09:06:20;;;;;;;2.87;2.47;;;22.50;99.90;;;;;;5075240;28;20485;-70
2021/09/11 09:08:49;;;;;;;3.10;2.80;;;22.40;99.90;;;;;;5075661;28;20441;-70
2021/09/11 09:11:22;;;;;;;3.30;2.90;;;22.20;99.90;;;;;;5075554;28;20442;-70
2021/09/11 09:13:58;;;;;;;4.53;3.23;;;22.10;99.90;;;;;;5075553;28;20444;-70
2021/09/11 09:16:26;;;;;;;3.90;3.50;;;22.10;99.90;;;;;;5075060;28;20523;-70
2021/09/11 09:18:54;;;;;;;6.00;3.90;;;22.00;99.90;;;;;;5075204;28;20475;-70
2021/09/11 09:21:25;;;;;;;4.37;3.63;;;22.10;99.90;;;;;;5075156;28;20874;-70
2021/09/11 09:23:54;;;;;;;4.13;3.73;;;22.20;99.90;;;;;;5075350;28;20464;-70
2021/09/11 09:26:21;;;;;;;4.00;3.60;;;22.40;99.90;;;;;;5074725;28;20543;-70
2021/09/11 09:29:08;;;;;;;3.30;3.10;;;22.50;99.90;;;;;;5075229;28;20481;-70
2021/09/11 09:31:36;;;;;;;4.77;4.30;;;22.70;99.90;;;;;;5075086;28;20441;-70
2021/09/11 09:34:03;;;;;;;4.50;4.10;;;22.80;99.90;;;;;;5075097;28;20442;-70
2021/09/11 09:36:36;;;;;;;5.03;4.50;;;22.80;99.90;;;;;;5074848;28;20466;-71
2021/09/11 09:39:06;;;;;;;3.67;3.27;;;23.00;99.90;;;;;;5075316;28;20441;-70
2021/09/11 09:41:48;;;;;;;4.10;3.80;;;23.10;99.90;;;;;;5074967;28;20833;-70
2021/09/11 09:44:16;;;;;;;3.57;3.23;;;23.20;99.90;;;;;;5074648;28;20537;-71
2021/09/11 09:46:44;;;;;;;3.87;3.57;;;23.30;99.90;;;;;;5074523;28;20486;-70
2021/09/11 09:49:12;;;;;;;4.70;3.90;;;23.40;99.90;;;;;;5074775;28;20444;-71
2021/09/11 09:51:41;;;;;;;4.07;3.77;;;23.50;99.90;;;;;;5074541;28;20953;-70
2021/09/11 09:54:08;;;;;;;5.43;4.03;;;23.60;99.90;;;;;;5074598;28;20936;-70
2021/09/11 09:56:35;;;;;;;3.47;3.17;;;23.50;99.90;;;;;;5074384;28;20462;-71
2021/09/11 09:59:02;;;;;;;4.70;3.77;;;23.50;99.90;;;;;;5074362;28;20485;-70
2021/09/11 10:01:29;;;;;;;4.30;3.87;;;23.40;99.90;;;;;;5074364;28;20534;-70
2021/09/11 10:03:56;;;;;;;3.43;3.20;;;23.60;99.90;;;;;;5074360;28;20443;-70
2021/09/11 10:06:29;;;;;;;3.97;3.20;;;23.40;99.90;;;;;;5073853;28;20578;-70
2021/09/11 10:08:59;;;;;;;3.53;3.00;;;23.60;99.90;;;;;;5074192;28;20436;-70
2021/09/11 10:11:37;;;;;;;3.70;3.40;;;23.50;99.90;;;;;;5074581;28;20450;-71
2021/09/11 10:14:06;;;;;;;3.40;3.10;;;23.70;99.90;;;;;;5074568;28;20444;-70
2021/09/11 10:16:35;;;;;;;3.30;3.10;;;23.90;99.90;;;;;;5074092;28;20464;-70
2021/09/11 10:19:15;;;;;;;3.70;3.40;;;24.10;99.90;;;;;;5074124;28;20456;-70
2021/09/11 10:21:42;;;;;;;3.63;3.33;;;24.70;99.90;;;;;;5074195;28;20487;-71
2021/09/11 10:24:31;;;;;;;4.23;3.83;;;25.00;99.90;;;;;;5074523;28;20528;-70
2021/09/11 10:27:01;;;;;;;3.97;3.67;;;25.00;99.90;;;;;;5073857;28;20576;-70
2021/09/11 10:29:50;;;;;;;4.00;3.70;;;24.70;99.90;;;;;;5074076;28;20470;-70
2021/09/11 10:32:23;;;;;;;4.10;3.70;;;24.50;99.90;;;;;;5074489;28;20444;-70
2021/09/11 10:34:53;;;;;;;3.43;3.13;;;24.30;99.90;;;;;;5074170;28;20475;-70
2021/09/11 10:37:37;;;;;;;3.40;3.13;;;24.20;99.90;;;;;;5073967;28;20916;-71
2021/09/11 10:40:26;;;;;;;3.40;3.10;;;24.70;99.90;;;;;;5073814;28;20480;-71
2021/09/11 10:43:24;;;;;;;5.57;4.67;;;25.60;99.90;;;;;;5073772;28;20449;-71
2021/09/11 10:46:11;;;;;;;3.70;3.40;;;26.00;99.90;;;;;;5073403;28;20544;-71
2021/09/11 10:48:56;;;;;;;2.83;2.63;;;26.30;99.90;;;;;;5073829;28;20899;-71
2021/09/11 10:51:34;;;;;;;3.50;3.20;;;26.50;99.90;;;;;;5073795;28;20452;-71
2021/09/11 10:54:13;;;;;;;4.00;3.60;;;26.50;99.40;;;;;;5073767;28;20473;-71
2021/09/11 10:56:45;;;;;;;3.30;3.00;;;26.60;99.20;;;;;;5073153;28;20977;-71
2021/09/11 10:59:31;;;;;;;3.43;3.13;;;26.90;99.40;;;;;;5073718;28;20448;-71
2021/09/11 11:02:14;;;;;;;3.30;3.00;;;27.00;98.00;;;;;;5073700;28;20515;-71
2021/09/11 11:04:55;;;;;;;3.07;2.83;;;26.40;98.20;;;;;;5071036;28;20449;-71
2021/09/11 11:07:24;;;;;;;2.80;2.60;;;26.00;99.10;;;;;;5073565;28;21033;-71
2021/09/11 11:09:53;;;;;;;3.07;2.87;;;25.20;99.60;;;;;;5073557;28;20448;-70
2021/09/11 11:12:22;;;;;;;3.47;3.17;;;24.60;99.90;;;;;;5073551;28;20802;-70
2021/09/11 11:14:50;;;;;;;4.00;3.33;;;24.00;99.90;;;;;;5073336;28;20459;-71
2021/09/11 11:17:18;;;;;;;2.63;2.43;;;23.50;99.90;;;;;;5073506;28;20819;-70
2021/09/11 11:19:46;;;;;;;3.07;2.80;;;23.20;99.90;;;;;;5073418;28;21019;-71
2021/09/11 11:22:15;;;;;;;3.40;2.80;;;23.10;99.90;;;;;;5073219;28;20444;-70
2021/09/11 11:24:45;;;;;;;2.90;2.70;;;23.10;99.90;;;;;;5073225;28;20452;-69
2021/09/11 11:27:14;;;;;;;3.27;3.03;;;23.00;99.90;;;;;;5073270;28;20481;-70
2021/09/11 11:29:44;;;;;;;3.20;3.00;;;23.00;99.90;;;;;;5073262;28;20982;-70
2021/09/11 11:32:11;;;;;;;3.30;3.00;;;22.70;99.90;;;;;;5077418;28;20444;-70
2021/09/11 11:34:38;;;;;;;3.33;3.03;;;22.60;99.90;;;;;;5077173;28;20531;-71
2021/09/11 11:37:07;;;;;;;4.00;3.30;;;22.50;99.90;;;;;;5077181;28;20468;-70
2021/09/11 11:39:37;;;;;;;4.43;3.90;;;22.30;99.90;;;;;;5077313;28;20443;-70
2021/09/11 11:42:06;;;;;;;3.60;3.30;;;22.20;99.90;;;;;;5077263;28;20447;-70
2021/09/11 11:44:37;;;;;;;4.50;3.70;;;22.10;99.90;;;;;;5076851;28;20463;-70
2021/09/11 11:47:14;;;;;;;3.70;3.10;;;22.00;99.90;;;;;;5077759;28;20491;-70
2021/09/11 11:49:42;;;;;;;2.77;2.47;;;21.80;99.90;;;;;;5077133;28;20444;-70
2021/09/11 11:52:12;;;;;;;8.30;2.97;;;21.80;99.90;;;;;;5076955;28;20444;-70
2021/09/11 11:54:39;;;;;;;3.20;3.00;;;21.70;99.90;;;;;;5077204;28;21129;-70
2021/09/11 11:57:12;;;;;;;2.83;2.53;;;21.60;99.90;;;;;;5076957;28;20461;-70
2021/09/11 11:59:40;;;;;;;5.83;2.70;;;21.60;99.90;;;;;;5076701;28;20440;-70
2021/09/11 12:02:31;;;;;;;2.07;1.87;;;21.60;99.90;;;;;;5077106;28;20527;-70
2021/09/11 12:05:17;;;;;;;3.20;2.90;;;21.70;99.90;;;;;;5072682;28;20865;-70
2021/09/11 12:07:53;;;;;;;4.87;2.70;;;21.70;99.90;;;;;;5076720;28;20556;-71
2021/09/11 12:10:21;;;;;;;3.30;3.00;;;21.80;99.90;;;;;;5076753;28;20437;-70
2021/09/11 12:12:49;;;;;;;4.80;4.33;;;21.90;99.90;;;;;;5076473;28;20488;-70
2021/09/11 12:15:18;;;;;;;3.77;3.47;;;22.00;99.90;;;;;;5076095;28;20970;-71
2021/09/11 12:18:01;;;;;;;4.23;3.77;;;22.00;99.90;;;;;;5076608;28;20444;-71
2021/09/11 12:20:33;;;;;;;3.10;2.90;;;22.20;99.90;;;;;;5076642;28;20443;-71
2021/09/11 12:23:09;;;;;;;1.77;1.67;;;22.50;99.90;;;;;;5076536;28;20437;-71
2021/09/11 12:25:55;;;;;;;2.47;2.27;;;22.70;99.90;;;;;;5076014;28;20978;-71
2021/09/11 12:28:41;;;;;;;1.70;1.60;;;22.90;99.90;;;;;;5076417;28;20464;-71
2021/09/11 12:31:19;;;;;;;2.40;2.20;;;22.80;99.90;;;;;;5076553;28;20448;-71
2021/09/11 12:33:50;;;;;;;2.40;2.30;;;23.00;99.90;;;;;;5076278;28;20445;-71
2021/09/11 12:36:19;;;;;;;2.20;2.00;;;23.10;99.90;;;;;;5075883;28;20491;-71
2021/09/11 12:38:45;;;;;;;2.57;2.37;;;23.00;99.90;;;;;;5076231;28;20441;-71
2021/09/11 12:41:12;;;;;;;2.60;2.40;;;23.10;99.90;;;;;;5075469;28;20803;-71
2021/09/11 12:43:39;;;;;;;2.37;1.83;;;23.10;99.90;;;;;;5075527;28;20464;-71
2021/09/11 12:46:06;;;;;;;2.27;2.17;;;23.20;99.90;;;;;;5075922;28;20460;-71
2021/09/11 12:48:33;;;;;;;1.90;1.80;;;23.20;99.90;;;;;;5075990;28;20504;-71
2021/09/11 12:51:01;;;;;;;2.23;2.10;;;23.00;99.90;;;;;;5076258;28;20442;-71
2021/09/11 12:53:28;;;;;;;4.47;3.20;;;23.00;99.90;;;;;;5075892;28;20445;-71
2021/09/11 12:55:55;;;;;;;2.80;2.40;;;23.00;99.90;;;;;;5075407;28;20527;-71